Ag Nektarios Aiginas — SX7083 — position and weather

sailwx.info

Track history (hours):
 
Tides and Currents Weather Stations Pressure Air Temp Water Temp Dewpoint Dewpoint Depression Visibility Wind Speed Wind Dir Waves Ship Positions

Ag Nektarios Aiginas

Last reported at 2017-Apr-27 16:31 UTC. Time now 2017-Apr-27 16:35 UTC.
Position N 37°56' E 023°37'.

Length 75 m; draft 2.7 m.

Type: Passenger vessel. MMSI: 237021400.

Date/timePositionNaut miles runAvg speedWind from/ knotsBaromVisibWave heightAir tempDewpointWater temp
2017-Apr-27 16:31N 37°56' E 023°37'713.0
2017-Apr-27 16:01N 37°51' E 023°32'713.1
2017-Apr-27 15:30N 37°47' E 023°26'2 4.5
2017-Apr-27 15:00N 37°45' E 023°25'8 7.7
2017-Apr-27 14:00N 37°51' E 023°32'612.7
2017-Apr-27 13:30N 37°56' E 023°37'2 3.6
2017-Apr-27 13:00N 37°57' E 023°38'2 4.3
2017-Apr-27 12:30N 37°55' E 023°36'612.9
2017-Apr-27 12:00N 37°50' E 023°31'612.9
2017-Apr-27 11:30N 37°46' E 023°25'1 2.9
2017-Apr-27 11:00N 37°45' E 023°26'1 3.0
2017-Apr-27 10:30N 37°46' E 023°25'612.6
2017-Apr-27 10:00N 37°50' E 023°31'612.8
2017-Apr-27 09:30N 37°55' E 023°36'2 4.7
2017-Apr-27 09:00N 37°57' E 023°39'2 4.0
2017-Apr-27 08:30N 37°55' E 023°37'612.7
2017-Apr-27 08:00N 37°50' E 023°32'612.9
2017-Apr-27 07:30N 37°46' E 023°25'2 3.2
2017-Apr-27 07:00N 37°45' E 023°26'3 5.5
2017-Apr-27 06:30N 37°47' E 023°27'612.6
2017-Apr-27 06:00N 37°52' E 023°33'612.5
2017-Apr-27 05:30N 37°56' E 023°38'1 1.5
2017-Apr-27 05:01N 37°57' E 023°38'0 0.0
2017-Apr-27 04:31N 37°57' E 023°38'0 0.0
2017-Apr-26 16:55N 37°57' E 023°38'2 3.8
2017-Apr-26 16:30N 37°56' E 023°37'613.0
2017-Apr-26 16:00N 37°51' E 023°32'713.1
2017-Apr-26 15:30N 37°46' E 023°26'2 3.5
2017-Apr-26 15:00N 37°45' E 023°26'1 2.9
2017-Apr-26 14:30N 37°46' E 023°25'1312.5
2017-Apr-26 13:30N 37°55' E 023°36'2 5.0
2017-Apr-26 13:00N 37°57' E 023°39'3 5.3
2017-Apr-26 12:30N 37°55' E 023°36'612.7
2017-Apr-26 12:00N 37°50' E 023°31'612.7
2017-Apr-26 11:30N 37°46' E 023°25'1 2.8
2017-Apr-26 11:00N 37°45' E 023°26'2 3.3
2017-Apr-26 10:30N 37°46' E 023°25'612.8
2017-Apr-26 10:00N 37°51' E 023°32'612.9
2017-Apr-26 09:30N 37°56' E 023°37'2 3.7
2017-Apr-26 09:00N 37°57' E 023°38'2 4.0
2017-Apr-26 08:30N 37°55' E 023°37'612.6
2017-Apr-26 08:00N 37°50' E 023°32'612.8
2017-Apr-26 07:30N 37°46' E 023°25'2 3.2
2017-Apr-26 07:00N 37°45' E 023°25'3 5.2
2017-Apr-26 06:30N 37°47' E 023°27'612.6
2017-Apr-26 06:01N 37°51' E 023°32'612.7
2017-Apr-26 05:30N 37°56' E 023°37'1 1.9
2017-Apr-26 05:01N 37°57' E 023°38'0 0.0
2017-Apr-26 04:30N 37°57' E 023°38'0 0.0
2017-Apr-25 17:06N 37°57' E 023°38'0 0.0
2017-Apr-25 17:00N 37°57' E 023°38'1 2.9
2017-Apr-25 16:30N 37°56' E 023°37'713.2
2017-Apr-25 16:00N 37°51' E 023°32'713.1
2017-Apr-25 15:30N 37°47' E 023°25'2 3.6
2017-Apr-25 15:00N 37°45' E 023°26'7 7.1
2017-Apr-25 14:00N 37°50' E 023°31'612.6
2017-Apr-25 13:30N 37°55' E 023°36'2 4.8
2017-Apr-25 13:00N 37°57' E 023°39'2 3.7
2017-Apr-25 12:30N 37°56' E 023°37'612.9
2017-Apr-25 12:00N 37°50' E 023°32'613.0
2017-Apr-25 11:30N 37°46' E 023°25'2 3.4
2017-Apr-25 11:00N 37°45' E 023°25'2 3.7
2017-Apr-25 10:30N 37°47' E 023°26'612.7
2017-Apr-25 10:00N 37°51' E 023°32'612.7
2017-Apr-25 09:30N 37°56' E 023°36'2 3.7
2017-Apr-25 09:01N 37°57' E 023°38'3 6.8
2017-Apr-25 08:30N 37°54' E 023°35'612.6
2017-Apr-25 08:00N 37°49' E 023°31'612.1
2017-Apr-25 07:30N 37°45' E 023°25'1 1.6
2017-Apr-25 07:00N 37°45' E 023°25'3 5.6
2017-Apr-25 06:30N 37°47' E 023°27'612.6
2017-Apr-25 06:01N 37°51' E 023°33'612.5
2017-Apr-25 05:30N 37°56' E 023°38'1 1.5
2017-Apr-25 05:00N 37°57' E 023°38'0 0.0
2017-Apr-24 16:50N 37°57' E 023°38'1 3.7
2017-Apr-24 16:30N 37°56' E 023°37'713.2
2017-Apr-24 16:00N 37°51' E 023°32'713.1
2017-Apr-24 15:30N 37°47' E 023°26'2 3.8
2017-Apr-24 15:00N 37°45' E 023°25'2 4.3
2017-Apr-24 14:30N 37°47' E 023°26'1212.4
2017-Apr-24 13:30N 37°56' E 023°37'2 3.3
2017-Apr-24 13:00N 37°57' E 023°39'2 4.0
2017-Apr-24 12:30N 37°55' E 023°37'613.0
2017-Apr-24 12:00N 37°50' E 023°31'612.9
2017-Apr-24 11:30N 37°46' E 023°25'1 2.9
2017-Apr-24 11:00N 37°45' E 023°26'2 4.6
2017-Apr-24 10:30N 37°47' E 023°26'612.7
2017-Apr-24 10:00N 37°51' E 023°32'612.5
2017-Apr-24 09:30N 37°56' E 023°37'1 2.6
2017-Apr-24 09:00N 37°57' E 023°38'2 4.9
2017-Apr-24 08:30N 37°55' E 023°36'612.6
2017-Apr-24 08:00N 37°50' E 023°31'612.6
2017-Apr-24 07:30N 37°46' E 023°25'1 2.9
2017-Apr-24 07:00N 37°45' E 023°25'2 4.6
2017-Apr-24 06:30N 37°47' E 023°26'612.6
2017-Apr-24 06:00N 37°51' E 023°32'612.8
2017-Apr-24 05:30N 37°56' E 023°37'1 2.4
2017-Apr-24 05:00N 37°57' E 023°38'0 0.0
2017-Apr-24 04:30N 37°57' E 023°38'0 0.0
2017-Apr-23 17:03N 37°57' E 023°38'0 0.0
2017-Apr-23 17:01N 37°57' E 023°38'2 4.6
2017-Apr-23 16:30N 37°55' E 023°36'612.8
2017-Apr-23 16:01N 37°50' E 023°31'713.0
2017-Apr-23 15:31N 37°46' E 023°25'1 2.7
2017-Apr-23 15:01N 37°45' E 023°26'7 7.3
2017-Apr-23 14:01N 37°50' E 023°31'612.6
2017-Apr-23 13:31N 37°55' E 023°37'2 4.4
2017-Apr-23 13:01N 37°57' E 023°39'2 4.4
2017-Apr-23 12:30N 37°55' E 023°36'612.9
2017-Apr-23 12:01N 37°50' E 023°32'612.8
2017-Apr-23 11:30N 37°46' E 023°25'1 3.0
2017-Apr-23 11:01N 37°45' E 023°26'2 3.5
2017-Apr-23 10:30N 37°46' E 023°26'612.7
2017-Apr-23 10:00N 37°50' E 023°32'612.7
2017-Apr-23 09:31N 37°56' E 023°36'2 3.9
2017-Apr-23 09:00N 37°57' E 023°39'611.1
2017-Apr-23 08:31N 37°52' E 023°34'612.6
2017-Apr-23 08:01N 37°48' E 023°28'4 7.9
2017-Apr-23 07:30N 37°45' E 023°25'0 0.0
2017-Apr-23 07:01N 37°45' E 023°25'5 9.1
2017-Apr-23 06:31N 37°48' E 023°29'612.4
2017-Apr-23 06:01N 37°53' E 023°34'510.0
2017-Apr-23 05:30N 37°57' E 023°38'0 0.0
2017-Apr-23 05:01N 37°57' E 023°38'0 0.0
2017-Apr-23 04:31N 37°57' E 023°38'0 0.0
2017-Apr-23 04:01N 37°57' E 023°38'0 0.0
2017-Apr-22 16:56N 37°57' E 023°38'2 5.5
2017-Apr-22 16:30N 37°55' E 023°36'613.0
2017-Apr-22 16:01N 37°50' E 023°31'612.7
2017-Apr-22 15:31N 37°46' E 023°25'2 3.2
2017-Apr-22 15:00N 37°45' E 023°26'1 2.7
2017-Apr-22 14:30N 37°46' E 023°25'1312.8
2017-Apr-22 13:31N 37°55' E 023°36'2 4.8
2017-Apr-22 13:00N 37°57' E 023°39'3 6.3
2017-Apr-22 12:31N 37°54' E 023°36'612.5
2017-Apr-22 12:01N 37°49' E 023°31'612.4
2017-Apr-22 11:31N 37°46' E 023°25'1 2.3
2017-Apr-22 11:01N 37°45' E 023°26'2 3.1
2017-Apr-22 10:30N 37°46' E 023°25'612.9
2017-Apr-22 10:01N 37°50' E 023°32'612.9
2017-Apr-22 09:30N 37°55' E 023°36'2 4.0
2017-Apr-22 09:00N 37°57' E 023°39'3 5.6
2017-Apr-22 08:30N 37°55' E 023°36'612.2
2017-Apr-22 08:00N 37°50' E 023°31'612.4
2017-Apr-22 07:30N 37°46' E 023°25'1 2.9
2017-Apr-22 07:00N 37°45' E 023°25'3 5.2
2017-Apr-22 06:30N 37°47' E 023°27'612.8
2017-Apr-22 06:01N 37°51' E 023°33'612.6
2017-Apr-22 05:30N 37°56' E 023°38'1 1.6
2017-Apr-22 05:00N 37°57' E 023°38'0 0.0
2017-Apr-22 04:31N 37°57' E 023°38'0 0.0
2017-Apr-21 17:10N 37°57' E 023°38'0 0.1
2017-Apr-21 17:00N 37°57' E 023°38'5 9.1
2017-Apr-21 16:30N 37°53' E 023°35'612.9
2017-Apr-21 16:00N 37°49' E 023°29'5 9.5
2017-Apr-21 15:30N 37°45' E 023°26'0 0.7
2017-Apr-21 15:00N 37°45' E 023°25'611.5
2017-Apr-21 14:30N 37°49' E 023°30'1010.2
2017-Apr-21 13:30N 37°57' E 023°39'2 3.8
2017-Apr-21 13:00N 37°56' E 023°37'612.5
2017-Apr-21 12:30N 37°51' E 023°32'612.3
2017-Apr-21 12:00N 37°47' E 023°26'2 3.9
2017-Apr-21 11:30N 37°45' E 023°26'0 0.0
2017-Apr-21 11:00N 37°45' E 023°26'4 7.6
2017-Apr-21 10:30N 37°48' E 023°28'612.7
2017-Apr-21 10:00N 37°53' E 023°34'611.2
2017-Apr-21 09:30N 37°57' E 023°39'0 0.7
2017-Apr-21 09:00N 37°57' E 023°38'5 9.3
2017-Apr-21 08:30N 37°53' E 023°35'612.1
2017-Apr-21 08:00N 37°48' E 023°29'5 9.8
2017-Apr-21 07:30N 37°45' E 023°25'0 0.3
2017-Apr-21 07:00N 37°45' E 023°25'3 5.8
2017-Apr-21 06:30N 37°47' E 023°27'612.6
2017-Apr-21 06:00N 37°51' E 023°33'612.3
2017-Apr-21 05:30N 37°56' E 023°38'1 1.3
2017-Apr-21 05:00N 37°57' E 023°39'0 0.0
2017-Apr-21 04:30N 37°57' E 023°39'0 0.0
2017-Apr-20 18:05N 37°57' E 023°39'0 0.2
2017-Apr-20 18:01N 37°57' E 023°39'4 8.5
2017-Apr-20 17:31N 37°53' E 023°35'611.7
2017-Apr-20 17:01N 37°49' E 023°31'611.4
2017-Apr-20 16:31N 37°45' E 023°25'1 1.8
2017-Apr-20 16:01N 37°45' E 023°25'0 0.0
2017-Apr-20 15:30N 37°45' E 023°25'3 5.4
2017-Apr-20 15:00N 37°47' E 023°27'612.2
2017-Apr-20 14:31N 37°51' E 023°33'7 7.4
2017-Apr-20 13:31N 37°57' E 023°39'1 1.4
2017-Apr-20 13:00N 37°56' E 023°38'611.9
2017-Apr-20 12:31N 37°52' E 023°33'612.7
2017-Apr-20 12:01N 37°48' E 023°27'3 6.3
2017-Apr-20 11:31N 37°45' E 023°25'0 0.0
2017-Apr-20 11:00N 37°45' E 023°25'2 3.5
2017-Apr-20 10:30N 37°46' E 023°26'612.1
2017-Apr-20 10:01N 37°50' E 023°32'612.6
2017-Apr-20 09:30N 37°55' E 023°36'2 4.5
2017-Apr-20 09:01N 37°57' E 023°39'3 5.6
2017-Apr-20 08:31N 37°55' E 023°36'612.8
2017-Apr-20 08:01N 37°50' E 023°31'612.8
2017-Apr-20 07:31N 37°46' E 023°25'1 2.3
2017-Apr-20 07:01N 37°45' E 023°25'3 5.1
2017-Apr-20 06:30N 37°47' E 023°27'612.5
2017-Apr-20 06:01N 37°51' E 023°32'612.5
2017-Apr-20 05:31N 37°56' E 023°37'1 2.1
2017-Apr-20 05:01N 37°57' E 023°39'0 0.0
2017-Apr-20 04:30N 37°57' E 023°39'0 0.0
2017-Apr-19 17:56N 37°57' E 023°38'2 4.9
2017-Apr-19 17:30N 37°55' E 023°37'612.8
2017-Apr-19 17:00N 37°49' E 023°36'5 9.6
2017-Apr-19 16:30N 37°47' E 023°30'4 8.5
2017-Apr-19 16:00N 37°45' E 023°25'0 0.0
2017-Apr-19 15:30N 37°45' E 023°26'1 1.3
2017-Apr-19 15:00N 37°45' E 023°25'510.8
2017-Apr-19 14:30N 37°48' E 023°30'1110.8
2017-Apr-19 13:30N 37°57' E 023°38'2 3.2
2017-Apr-19 13:00N 37°56' E 023°37'611.9
2017-Apr-19 12:30N 37°50' E 023°34'612.7
2017-Apr-19 12:01N 37°47' E 023°27'3 5.2
2017-Apr-19 11:30N 37°45' E 023°26'0 0.0
2017-Apr-19 11:00N 37°45' E 023°26'4 7.9
2017-Apr-19 10:30N 37°48' E 023°28'612.5
2017-Apr-19 10:01N 37°53' E 023°34'611.1
2017-Apr-19 09:30N 37°57' E 023°39'0 0.7
2017-Apr-19 09:00N 37°57' E 023°38'611.8
2017-Apr-19 08:30N 37°52' E 023°33'612.8
2017-Apr-19 08:00N 37°47' E 023°28'3 6.3
2017-Apr-19 07:30N 37°45' E 023°26'0 0.0
2017-Apr-19 07:00N 37°45' E 023°26'3 5.2
2017-Apr-19 06:30N 37°47' E 023°26'612.8
2017-Apr-19 06:00N 37°51' E 023°33'612.6
2017-Apr-19 05:30N 37°56' E 023°37'1 1.8
2017-Apr-19 05:00N 37°57' E 023°39'0 0.0
2017-Apr-19 04:30N 37°57' E 023°39'0 0.0
2017-Apr-18 20:16N 37°57' E 023°39'0 0.0
2017-Apr-18 20:00N 37°57' E 023°39'510.0
2017-Apr-18 19:30N 37°52' E 023°35'612.6
2017-Apr-18 19:00N 37°48' E 023°29'5 9.2
2017-Apr-18 18:30N 37°45' E 023°25'0 0.0
2017-Apr-18 18:00N 37°45' E 023°25'3 6.5
2017-Apr-18 17:30N 37°48' E 023°27'612.7
2017-Apr-18 17:00N 37°52' E 023°33'612.2
2017-Apr-18 16:30N 37°56' E 023°38'1 1.6
2017-Apr-18 16:00N 37°56' E 023°37'510.5
2017-Apr-18 15:30N 37°52' E 023°34'612.9
2017-Apr-18 15:00N 37°48' E 023°27'3 6.5
2017-Apr-18 14:30N 37°45' E 023°26'5 4.7
2017-Apr-18 13:30N 37°49' E 023°29'612.7
2017-Apr-18 13:00N 37°53' E 023°34'5 9.5
2017-Apr-18 12:30N 37°57' E 023°39'2 3.8
2017-Apr-18 12:00N 37°56' E 023°36'612.8
2017-Apr-18 11:30N 37°50' E 023°32'612.7
2017-Apr-18 11:00N 37°46' E 023°26'2 3.4
2017-Apr-18 10:30N 37°45' E 023°25'0 0.0
2017-Apr-18 10:00N 37°45' E 023°25'8 9.6
2017-Apr-18 09:13N 37°50' E 023°32'313.0
2017-Apr-18 09:00N 37°53' E 023°34'510.9
2017-Apr-18 08:30N 37°57' E 023°39'0 0.0
2017-Apr-18 08:00N 37°57' E 023°39'0 0.0
2017-Apr-18 07:30N 37°57' E 023°39'0 0.0
2017-Apr-17 20:11N 37°57' E 023°39'0 0.1
2017-Apr-17 20:00N 37°57' E 023°39'4 8.3
2017-Apr-17 19:30N 37°54' E 023°35'612.3
2017-Apr-17 19:00N 37°49' E 023°30'611.1
2017-Apr-17 18:30N 37°45' E 023°25'0 0.8
2017-Apr-17 18:01N 37°45' E 023°26'2 4.5
2017-Apr-17 17:30N 37°47' E 023°26'713.2
2017-Apr-17 17:00N 37°51' E 023°32'  
Track history (hours):
 
Tides and Currents Weather Stations Pressure Air Temp Water Temp Dewpoint Dewpoint Depression Visibility Wind Speed Wind Dir Waves Ship Positions

Ag Nektarios Aiginas

Last reported at 2017-Apr-27 16:31 UTC. Time now 2017-Apr-27 16:35 UTC.
Position N 37°56' E 023°37'.

Length 75 m; draft 2.7 m.

Type: Passenger vessel. MMSI: 237021400.

Date/timePositionNaut miles runAvg speedWind from/ knotsBaromVisibWave heightAir tempDewpointWater temp
2017-Apr-27 16:31N 37°56' E 023°37'713.0
2017-Apr-27 16:01N 37°51' E 023°32'713.1
2017-Apr-27 15:30N 37°47' E 023°26'2 4.5
2017-Apr-27 15:00N 37°45' E 023°25'8 7.7
2017-Apr-27 14:00N 37°51' E 023°32'612.7
2017-Apr-27 13:30N 37°56' E 023°37'2 3.6
2017-Apr-27 13:00N 37°57' E 023°38'2 4.3
2017-Apr-27 12:30N 37°55' E 023°36'612.9
2017-Apr-27 12:00N 37°50' E 023°31'612.9
2017-Apr-27 11:30N 37°46' E 023°25'1 2.9
2017-Apr-27 11:00N 37°45' E 023°26'1 3.0
2017-Apr-27 10:30N 37°46' E 023°25'612.6
2017-Apr-27 10:00N 37°50' E 023°31'612.8
2017-Apr-27 09:30N 37°55' E 023°36'2 4.7
2017-Apr-27 09:00N 37°57' E 023°39'2 4.0
2017-Apr-27 08:30N 37°55' E 023°37'612.7
2017-Apr-27 08:00N 37°50' E 023°32'612.9
2017-Apr-27 07:30N 37°46' E 023°25'2 3.2
2017-Apr-27 07:00N 37°45' E 023°26'3 5.5
2017-Apr-27 06:30N 37°47' E 023°27'612.6
2017-Apr-27 06:00N 37°52' E 023°33'612.5
2017-Apr-27 05:30N 37°56' E 023°38'1 1.5
2017-Apr-27 05:01N 37°57' E 023°38'0 0.0
2017-Apr-27 04:31N 37°57' E 023°38'0 0.0
2017-Apr-26 16:55N 37°57' E 023°38'2 3.8
2017-Apr-26 16:30N 37°56' E 023°37'613.0
2017-Apr-26 16:00N 37°51' E 023°32'713.1
2017-Apr-26 15:30N 37°46' E 023°26'2 3.5
2017-Apr-26 15:00N 37°45' E 023°26'1 2.9
2017-Apr-26 14:30N 37°46' E 023°25'1312.5
2017-Apr-26 13:30N 37°55' E 023°36'2 5.0
2017-Apr-26 13:00N 37°57' E 023°39'3 5.3
2017-Apr-26 12:30N 37°55' E 023°36'612.7
2017-Apr-26 12:00N 37°50' E 023°31'612.7
2017-Apr-26 11:30N 37°46' E 023°25'1 2.8
2017-Apr-26 11:00N 37°45' E 023°26'2 3.3
2017-Apr-26 10:30N 37°46' E 023°25'612.8
2017-Apr-26 10:00N 37°51' E 023°32'612.9
2017-Apr-26 09:30N 37°56' E 023°37'2 3.7
2017-Apr-26 09:00N 37°57' E 023°38'2 4.0
2017-Apr-26 08:30N 37°55' E 023°37'612.6
2017-Apr-26 08:00N 37°50' E 023°32'612.8
2017-Apr-26 07:30N 37°46' E 023°25'2 3.2
2017-Apr-26 07:00N 37°45' E 023°25'3 5.2
2017-Apr-26 06:30N 37°47' E 023°27'612.6
2017-Apr-26 06:01N 37°51' E 023°32'612.7
2017-Apr-26 05:30N 37°56' E 023°37'1 1.9
2017-Apr-26 05:01N 37°57' E 023°38'0 0.0
2017-Apr-26 04:30N 37°57' E 023°38'0 0.0
2017-Apr-25 17:06N 37°57' E 023°38'0 0.0
2017-Apr-25 17:00N 37°57' E 023°38'1 2.9
2017-Apr-25 16:30N 37°56' E 023°37'713.2
2017-Apr-25 16:00N 37°51' E 023°32'713.1
2017-Apr-25 15:30N 37°47' E 023°25'2 3.6
2017-Apr-25 15:00N 37°45' E 023°26'7 7.1
2017-Apr-25 14:00N 37°50' E 023°31'612.6
2017-Apr-25 13:30N 37°55' E 023°36'2 4.8
2017-Apr-25 13:00N 37°57' E 023°39'2 3.7
2017-Apr-25 12:30N 37°56' E 023°37'612.9
2017-Apr-25 12:00N 37°50' E 023°32'613.0
2017-Apr-25 11:30N 37°46' E 023°25'2 3.4
2017-Apr-25 11:00N 37°45' E 023°25'2 3.7
2017-Apr-25 10:30N 37°47' E 023°26'612.7
2017-Apr-25 10:00N 37°51' E 023°32'612.7
2017-Apr-25 09:30N 37°56' E 023°36'2 3.7
2017-Apr-25 09:01N 37°57' E 023°38'3 6.8
2017-Apr-25 08:30N 37°54' E 023°35'612.6
2017-Apr-25 08:00N 37°49' E 023°31'612.1
2017-Apr-25 07:30N 37°45' E 023°25'1 1.6
2017-Apr-25 07:00N 37°45' E 023°25'3 5.6
2017-Apr-25 06:30N 37°47' E 023°27'612.6
2017-Apr-25 06:01N 37°51' E 023°33'612.5
2017-Apr-25 05:30N 37°56' E 023°38'1 1.5
2017-Apr-25 05:00N 37°57' E 023°38'0 0.0
2017-Apr-24 16:50N 37°57' E 023°38'1 3.7
2017-Apr-24 16:30N 37°56' E 023°37'713.2
2017-Apr-24 16:00N 37°51' E 023°32'713.1
2017-Apr-24 15:30N 37°47' E 023°26'2 3.8
2017-Apr-24 15:00N 37°45' E 023°25'2 4.3
2017-Apr-24 14:30N 37°47' E 023°26'1212.4
2017-Apr-24 13:30N 37°56' E 023°37'2 3.3
2017-Apr-24 13:00N 37°57' E 023°39'2 4.0
2017-Apr-24 12:30N 37°55' E 023°37'613.0
2017-Apr-24 12:00N 37°50' E 023°31'612.9
2017-Apr-24 11:30N 37°46' E 023°25'1 2.9
2017-Apr-24 11:00N 37°45' E 023°26'2 4.6
2017-Apr-24 10:30N 37°47' E 023°26'612.7
2017-Apr-24 10:00N 37°51' E 023°32'612.5
2017-Apr-24 09:30N 37°56' E 023°37'1 2.6
2017-Apr-24 09:00N 37°57' E 023°38'2 4.9
2017-Apr-24 08:30N 37°55' E 023°36'612.6
2017-Apr-24 08:00N 37°50' E 023°31'612.6
2017-Apr-24 07:30N 37°46' E 023°25'1 2.9
2017-Apr-24 07:00N 37°45' E 023°25'2 4.6
2017-Apr-24 06:30N 37°47' E 023°26'612.6
2017-Apr-24 06:00N 37°51' E 023°32'612.8
2017-Apr-24 05:30N 37°56' E 023°37'1 2.4
2017-Apr-24 05:00N 37°57' E 023°38'0 0.0
2017-Apr-24 04:30N 37°57' E 023°38'0 0.0
2017-Apr-23 17:03N 37°57' E 023°38'0 0.0
2017-Apr-23 17:01N 37°57' E 023°38'2 4.6
2017-Apr-23 16:30N 37°55' E 023°36'612.8
2017-Apr-23 16:01N 37°50' E 023°31'713.0
2017-Apr-23 15:31N 37°46' E 023°25'1 2.7
2017-Apr-23 15:01N 37°45' E 023°26'7 7.3
2017-Apr-23 14:01N 37°50' E 023°31'612.6
2017-Apr-23 13:31N 37°55' E 023°37'2 4.4
2017-Apr-23 13:01N 37°57' E 023°39'2 4.4
2017-Apr-23 12:30N 37°55' E 023°36'612.9
2017-Apr-23 12:01N 37°50' E 023°32'612.8
2017-Apr-23 11:30N 37°46' E 023°25'1 3.0
2017-Apr-23 11:01N 37°45' E 023°26'2 3.5
2017-Apr-23 10:30N 37°46' E 023°26'612.7
2017-Apr-23 10:00N 37°50' E 023°32'612.7
2017-Apr-23 09:31N 37°56' E 023°36'2 3.9
2017-Apr-23 09:00N 37°57' E 023°39'611.1
2017-Apr-23 08:31N 37°52' E 023°34'612.6
2017-Apr-23 08:01N 37°48' E 023°28'4 7.9
2017-Apr-23 07:30N 37°45' E 023°25'0 0.0
2017-Apr-23 07:01N 37°45' E 023°25'5 9.1
2017-Apr-23 06:31N 37°48' E 023°29'612.4
2017-Apr-23 06:01N 37°53' E 023°34'510.0
2017-Apr-23 05:30N 37°57' E 023°38'0 0.0
2017-Apr-23 05:01N 37°57' E 023°38'0 0.0
2017-Apr-23 04:31N 37°57' E 023°38'0 0.0
2017-Apr-23 04:01N 37°57' E 023°38'0 0.0
2017-Apr-22 16:56N 37°57' E 023°38'2 5.5
2017-Apr-22 16:30N 37°55' E 023°36'613.0
2017-Apr-22 16:01N 37°50' E 023°31'612.7
2017-Apr-22 15:31N 37°46' E 023°25'2 3.2
2017-Apr-22 15:00N 37°45' E 023°26'1 2.7
2017-Apr-22 14:30N 37°46' E 023°25'1312.8
2017-Apr-22 13:31N 37°55' E 023°36'2 4.8
2017-Apr-22 13:00N 37°57' E 023°39'3 6.3
2017-Apr-22 12:31N 37°54' E 023°36'612.5
2017-Apr-22 12:01N 37°49' E 023°31'612.4
2017-Apr-22 11:31N 37°46' E 023°25'1 2.3
2017-Apr-22 11:01N 37°45' E 023°26'2 3.1
2017-Apr-22 10:30N 37°46' E 023°25'612.9
2017-Apr-22 10:01N 37°50' E 023°32'612.9
2017-Apr-22 09:30N 37°55' E 023°36'2 4.0
2017-Apr-22 09:00N 37°57' E 023°39'3 5.6
2017-Apr-22 08:30N 37°55' E 023°36'612.2
2017-Apr-22 08:00N 37°50' E 023°31'612.4
2017-Apr-22 07:30N 37°46' E 023°25'1 2.9
2017-Apr-22 07:00N 37°45' E 023°25'3 5.2
2017-Apr-22 06:30N 37°47' E 023°27'612.8
2017-Apr-22 06:01N 37°51' E 023°33'612.6
2017-Apr-22 05:30N 37°56' E 023°38'1 1.6
2017-Apr-22 05:00N 37°57' E 023°38'0 0.0
2017-Apr-22 04:31N 37°57' E 023°38'0 0.0
2017-Apr-21 17:10N 37°57' E 023°38'0 0.1
2017-Apr-21 17:00N 37°57' E 023°38'5 9.1
2017-Apr-21 16:30N 37°53' E 023°35'612.9
2017-Apr-21 16:00N 37°49' E 023°29'5 9.5
2017-Apr-21 15:30N 37°45' E 023°26'0 0.7
2017-Apr-21 15:00N 37°45' E 023°25'611.5
2017-Apr-21 14:30N 37°49' E 023°30'1010.2
2017-Apr-21 13:30N 37°57' E 023°39'2 3.8
2017-Apr-21 13:00N 37°56' E 023°37'612.5
2017-Apr-21 12:30N 37°51' E 023°32'612.3
2017-Apr-21 12:00N 37°47' E 023°26'2 3.9
2017-Apr-21 11:30N 37°45' E 023°26'0 0.0
2017-Apr-21 11:00N 37°45' E 023°26'4 7.6
2017-Apr-21 10:30N 37°48' E 023°28'612.7
2017-Apr-21 10:00N 37°53' E 023°34'611.2
2017-Apr-21 09:30N 37°57' E 023°39'0 0.7
2017-Apr-21 09:00N 37°57' E 023°38'5 9.3
2017-Apr-21 08:30N 37°53' E 023°35'612.1
2017-Apr-21 08:00N 37°48' E 023°29'5 9.8
2017-Apr-21 07:30N 37°45' E 023°25'0 0.3
2017-Apr-21 07:00N 37°45' E 023°25'3 5.8
2017-Apr-21 06:30N 37°47' E 023°27'612.6
2017-Apr-21 06:00N 37°51' E 023°33'612.3
2017-Apr-21 05:30N 37°56' E 023°38'1 1.3
2017-Apr-21 05:00N 37°57' E 023°39'0 0.0
2017-Apr-21 04:30N 37°57' E 023°39'0 0.0
2017-Apr-20 18:05N 37°57' E 023°39'0 0.2
2017-Apr-20 18:01N 37°57' E 023°39'4 8.5
2017-Apr-20 17:31N 37°53' E 023°35'611.7
2017-Apr-20 17:01N 37°49' E 023°31'611.4
2017-Apr-20 16:31N 37°45' E 023°25'1 1.8
2017-Apr-20 16:01N 37°45' E 023°25'0 0.0
2017-Apr-20 15:30N 37°45' E 023°25'3 5.4
2017-Apr-20 15:00N 37°47' E 023°27'612.2
2017-Apr-20 14:31N 37°51' E 023°33'7 7.4
2017-Apr-20 13:31N 37°57' E 023°39'1 1.4
2017-Apr-20 13:00N 37°56' E 023°38'611.9
2017-Apr-20 12:31N 37°52' E 023°33'612.7
2017-Apr-20 12:01N 37°48' E 023°27'3 6.3
2017-Apr-20 11:31N 37°45' E 023°25'0 0.0
2017-Apr-20 11:00N 37°45' E 023°25'2 3.5
2017-Apr-20 10:30N 37°46' E 023°26'612.1
2017-Apr-20 10:01N 37°50' E 023°32'612.6
2017-Apr-20 09:30N 37°55' E 023°36'2 4.5
2017-Apr-20 09:01N 37°57' E 023°39'3 5.6
2017-Apr-20 08:31N 37°55' E 023°36'612.8
2017-Apr-20 08:01N 37°50' E 023°31'612.8
2017-Apr-20 07:31N 37°46' E 023°25'1 2.3
2017-Apr-20 07:01N 37°45' E 023°25'3 5.1
2017-Apr-20 06:30N 37°47' E 023°27'612.5
2017-Apr-20 06:01N 37°51' E 023°32'612.5
2017-Apr-20 05:31N 37°56' E 023°37'1 2.1
2017-Apr-20 05:01N 37°57' E 023°39'0 0.0
2017-Apr-20 04:30N 37°57' E 023°39'0 0.0
2017-Apr-19 17:56N 37°57' E 023°38'2 4.9
2017-Apr-19 17:30N 37°55' E 023°37'612.8
2017-Apr-19 17:00N 37°49' E 023°36'5 9.6
2017-Apr-19 16:30N 37°47' E 023°30'4 8.5
2017-Apr-19 16:00N 37°45' E 023°25'0 0.0
2017-Apr-19 15:30N 37°45' E 023°26'1 1.3
2017-Apr-19 15:00N 37°45' E 023°25'510.8
2017-Apr-19 14:30N 37°48' E 023°30'1110.8
2017-Apr-19 13:30N 37°57' E 023°38'2 3.2
2017-Apr-19 13:00N 37°56' E 023°37'611.9
2017-Apr-19 12:30N 37°50' E 023°34'612.7
2017-Apr-19 12:01N 37°47' E 023°27'3 5.2
2017-Apr-19 11:30N 37°45' E 023°26'0 0.0
2017-Apr-19 11:00N 37°45' E 023°26'4 7.9
2017-Apr-19 10:30N 37°48' E 023°28'612.5
2017-Apr-19 10:01N 37°53' E 023°34'611.1
2017-Apr-19 09:30N 37°57' E 023°39'0 0.7
2017-Apr-19 09:00N 37°57' E 023°38'611.8
2017-Apr-19 08:30N 37°52' E 023°33'612.8
2017-Apr-19 08:00N 37°47' E 023°28'3 6.3
2017-Apr-19 07:30N 37°45' E 023°26'0 0.0
2017-Apr-19 07:00N 37°45' E 023°26'3 5.2
2017-Apr-19 06:30N 37°47' E 023°26'612.8
2017-Apr-19 06:00N 37°51' E 023°33'612.6
2017-Apr-19 05:30N 37°56' E 023°37'1 1.8
2017-Apr-19 05:00N 37°57' E 023°39'0 0.0
2017-Apr-19 04:30N 37°57' E 023°39'0 0.0
2017-Apr-18 20:16N 37°57' E 023°39'0 0.0
2017-Apr-18 20:00N 37°57' E 023°39'510.0
2017-Apr-18 19:30N 37°52' E 023°35'612.6
2017-Apr-18 19:00N 37°48' E 023°29'5 9.2
2017-Apr-18 18:30N 37°45' E 023°25'0 0.0
2017-Apr-18 18:00N 37°45' E 023°25'3 6.5
2017-Apr-18 17:30N 37°48' E 023°27'612.7
2017-Apr-18 17:00N 37°52' E 023°33'612.2
2017-Apr-18 16:30N 37°56' E 023°38'1 1.6
2017-Apr-18 16:00N 37°56' E 023°37'510.5
2017-Apr-18 15:30N 37°52' E 023°34'612.9
2017-Apr-18 15:00N 37°48' E 023°27'3 6.5
2017-Apr-18 14:30N 37°45' E 023°26'5 4.7
2017-Apr-18 13:30N 37°49' E 023°29'612.7
2017-Apr-18 13:00N 37°53' E 023°34'5 9.5
2017-Apr-18 12:30N 37°57' E 023°39'2 3.8
2017-Apr-18 12:00N 37°56' E 023°36'612.8
2017-Apr-18 11:30N 37°50' E 023°32'612.7
2017-Apr-18 11:00N 37°46' E 023°26'2 3.4
2017-Apr-18 10:30N 37°45' E 023°25'0 0.0
2017-Apr-18 10:00N 37°45' E 023°25'8 9.6
2017-Apr-18 09:13N 37°50' E 023°32'313.0
2017-Apr-18 09:00N 37°53' E 023°34'510.9
2017-Apr-18 08:30N 37°57' E 023°39'0 0.0
2017-Apr-18 08:00N 37°57' E 023°39'0 0.0
2017-Apr-18 07:30N 37°57' E 023°39'0 0.0
2017-Apr-17 20:11N 37°57' E 023°39'0 0.1
2017-Apr-17 20:00N 37°57' E 023°39'4 8.3
2017-Apr-17 19:30N 37°54' E 023°35'612.3
2017-Apr-17 19:00N 37°49' E 023°30'611.1
2017-Apr-17 18:30N 37°45' E 023°25'0 0.8
2017-Apr-17 18:01N 37°45' E 023°26'2 4.5
2017-Apr-17 17:30N 37°47' E 023°26'713.2
2017-Apr-17 17:00N 37°51' E 023°32'  

Dump ship's entire track history